sensor_id;sensor_type;location;lat;lon;timestamp;temperature;humidity
23233;DHT22;11785;49.500;8.288;2023-04-01T00:00:19;11.10;72.00
23233;DHT22;11785;49.500;8.288;2023-04-01T00:02:46;11.10;71.90
23233;DHT22;11785;49.500;8.288;2023-04-01T00:05:11;11.10;72.10
23233;DHT22;11785;49.500;8.288;2023-04-01T00:07:40;11.10;71.80
23233;DHT22;11785;49.500;8.288;2023-04-01T00:10:07;11.10;71.80
23233;DHT22;11785;49.500;8.288;2023-04-01T00:12:34;11.10;71.80
23233;DHT22;11785;49.500;8.288;2023-04-01T00:15:00;11.10;71.60
23233;DHT22;11785;49.500;8.288;2023-04-01T00:17:25;11.20;71.10
23233;DHT22;11785;49.500;8.288;2023-04-01T00:19:51;11.10;71.60
23233;DHT22;11785;49.500;8.288;2023-04-01T00:22:17;11.10;71.80
23233;DHT22;11785;49.500;8.288;2023-04-01T00:24:42;11.00;73.00
23233;DHT22;11785;49.500;8.288;2023-04-01T00:27:08;11.00;72.80
23233;DHT22;11785;49.500;8.288;2023-04-01T00:29:34;11.10;71.70
23233;DHT22;11785;49.500;8.288;2023-04-01T00:32:00;11.10;71.60
23233;DHT22;11785;49.500;8.288;2023-04-01T00:34:26;11.20;70.70
23233;DHT22;11785;49.500;8.288;2023-04-01T00:36:52;11.20;70.80
23233;DHT22;11785;49.500;8.288;2023-04-01T00:39:18;11.20;71.00
23233;DHT22;11785;49.500;8.288;2023-04-01T00:41:44;11.20;71.10
23233;DHT22;11785;49.500;8.288;2023-04-01T00:44:21;11.10;71.50
23233;DHT22;11785;49.500;8.288;2023-04-01T00:46:48;11.00;72.40
23233;DHT22;11785;49.500;8.288;2023-04-01T00:49:16;11.00;72.30
23233;DHT22;11785;49.500;8.288;2023-04-01T00:51:43;11.10;70.80
23233;DHT22;11785;49.500;8.288;2023-04-01T00:54:11;11.20;70.00
23233;DHT22;11785;49.500;8.288;2023-04-01T00:56:41;11.20;70.30
23233;DHT22;11785;49.500;8.288;2023-04-01T00:59:34;11.10;71.00
23233;DHT22;11785;49.500;8.288;2023-04-01T01:01:57;11.10;71.60
23233;DHT22;11785;49.500;8.288;2023-04-01T01:04:31;11.00;72.70
23233;DHT22;11785;49.500;8.288;2023-04-01T01:07:03;10.90;73.30
23233;DHT22;11785;49.500;8.288;2023-04-01T01:12:29;11.10;71.60
23233;DHT22;11785;49.500;8.288;2023-04-01T01:15:12;11.00;72.20
23233;DHT22;11785;49.500;8.288;2023-04-01T01:26:57;11.10;70.90
23233;DHT22;11785;49.500;8.288;2023-04-01T01:35:16;11.10;70.40
23233;DHT22;11785;49.500;8.288;2023-04-01T01:37:46;11.20;69.80
23233;DHT22;11785;49.500;8.288;2023-04-01T01:40:13;11.10;70.70
23233;DHT22;11785;49.500;8.288;2023-04-01T01:42:43;11.10;71.00
23233;DHT22;11785;49.500;8.288;2023-04-01T01:45:14;11.10;70.60
23233;DHT22;11785;49.500;8.288;2023-04-01T01:47:43;11.20;69.90
23233;DHT22;11785;49.500;8.288;2023-04-01T01:50:11;11.20;69.60
23233;DHT22;11785;49.500;8.288;2023-04-01T01:52:37;11.20;70.10
23233;DHT22;11785;49.500;8.288;2023-04-01T01:55:22;11.10;70.90
23233;DHT22;11785;49.500;8.288;2023-04-01T01:57:48;11.10;71.40
23233;DHT22;11785;49.500;8.288;2023-04-01T02:00:15;11.00;72.60
23233;DHT22;11785;49.500;8.288;2023-04-01T02:02:45;11.00;73.00
23233;DHT22;11785;49.500;8.288;2023-04-01T02:05:16;11.00;73.40
23233;DHT22;11785;49.500;8.288;2023-04-01T02:07:46;10.90;74.40
23233;DHT22;11785;49.500;8.288;2023-04-01T02:10:14;10.90;74.70
23233;DHT22;11785;49.500;8.288;2023-04-01T02:12:41;10.90;74.80
23233;DHT22;11785;49.500;8.288;2023-04-01T02:15:12;10.90;74.90
23233;DHT22;11785;49.500;8.288;2023-04-01T02:17:43;10.90;75.40
23233;DHT22;11785;49.500;8.288;2023-04-01T02:20:17;10.70;78.60
23233;DHT22;11785;49.500;8.288;2023-04-01T02:22:50;10.60;80.30
23233;DHT22;11785;49.500;8.288;2023-04-01T02:25:20;10.30;83.40
23233;DHT22;11785;49.500;8.288;2023-04-01T02:27:47;10.10;85.70
23233;DHT22;11785;49.500;8.288;2023-04-01T02:30:15;10.10;86.30
23233;DHT22;11785;49.500;8.288;2023-04-01T02:32:41;10.00;87.10
23233;DHT22;11785;49.500;8.288;2023-04-01T02:35:13;9.90;88.20
23233;DHT22;11785;49.500;8.288;2023-04-01T02:37:40;9.90;88.00
23233;DHT22;11785;49.500;8.288;2023-04-01T02:40:10;10.10;86.20
23233;DHT22;11785;49.500;8.288;2023-04-01T02:42:36;10.20;84.30
23233;DHT22;11785;49.500;8.288;2023-04-01T02:45:02;10.20;83.80
23233;DHT22;11785;49.500;8.288;2023-04-01T02:47:28;10.30;82.90
23233;DHT22;11785;49.500;8.288;2023-04-01T02:49:54;10.40;81.00
23233;DHT22;11785;49.500;8.288;2023-04-01T02:52:24;10.50;80.20
23233;DHT22;11785;49.500;8.288;2023-04-01T02:54:50;10.50;79.70
23233;DHT22;11785;49.500;8.288;2023-04-01T02:57:15;10.60;79.00
23233;DHT22;11785;49.500;8.288;2023-04-01T02:59:41;10.50;79.70
23233;DHT22;11785;49.500;8.288;2023-04-01T03:02:06;10.60;79.20
23233;DHT22;11785;49.500;8.288;2023-04-01T03:04:32;10.50;80.00
23233;DHT22;11785;49.500;8.288;2023-04-01T03:06:58;10.50;80.40
23233;DHT22;11785;49.500;8.288;2023-04-01T03:09:23;10.60;79.20
23233;DHT22;11785;49.500;8.288;2023-04-01T03:11:49;10.60;79.20
23233;DHT22;11785;49.500;8.288;2023-04-01T03:14:15;10.60;79.80
23233;DHT22;11785;49.500;8.288;2023-04-01T03:16:40;10.50;80.10
23233;DHT22;11785;49.500;8.288;2023-04-01T03:19:06;10.50;80.10
23233;DHT22;11785;49.500;8.288;2023-04-01T03:21:31;10.50;79.90
23233;DHT22;11785;49.500;8.288;2023-04-01T03:23:57;10.50;79.70
23233;DHT22;11785;49.500;8.288;2023-04-01T03:26:24;10.50;79.90
23233;DHT22;11785;49.500;8.288;2023-04-01T03:28:49;10.60;79.10
23233;DHT22;11785;49.500;8.288;2023-04-01T03:31:15;10.50;80.10
23233;DHT22;11785;49.500;8.288;2023-04-01T03:33:41;10.50;80.20
23233;DHT22;11785;49.500;8.288;2023-04-01T03:36:08;10.50;80.50
23233;DHT22;11785;49.500;8.288;2023-04-01T03:38:34;10.50;80.70
23233;DHT22;11785;49.500;8.288;2023-04-01T03:41:00;10.40;81.30
23233;DHT22;11785;49.500;8.288;2023-04-01T03:43:25;10.50;80.20
23233;DHT22;11785;49.500;8.288;2023-04-01T03:45:52;10.60;79.40
23233;DHT22;11785;49.500;8.288;2023-04-01T03:48:18;10.60;79.40
23233;DHT22;11785;49.500;8.288;2023-04-01T03:50:44;10.60;79.40
23233;DHT22;11785;49.500;8.288;2023-04-01T03:53:10;10.50;80.30
23233;DHT22;11785;49.500;8.288;2023-04-01T03:55:36;10.50;79.80
23233;DHT22;11785;49.500;8.288;2023-04-01T03:58:03;10.60;79.30
23233;DHT22;11785;49.500;8.288;2023-04-01T04:00:29;10.60;79.40
23233;DHT22;11785;49.500;8.288;2023-04-01T04:02:55;10.60;79.80
23233;DHT22;11785;49.500;8.288;2023-04-01T04:05:22;10.60;79.70
23233;DHT22;11785;49.500;8.288;2023-04-01T04:07:48;10.60;79.90
23233;DHT22;11785;49.500;8.288;2023-04-01T04:10:13;10.50;80.60
23233;DHT22;11785;49.500;8.288;2023-04-01T04:12:39;10.50;80.50
23233;DHT22;11785;49.500;8.288;2023-04-01T04:15:06;10.50;80.60
23233;DHT22;11785;49.500;8.288;2023-04-01T04:17:31;10.50;80.60
23233;DHT22;11785;49.500;8.288;2023-04-01T04:19:57;10.60;79.50
23233;DHT22;11785;49.500;8.288;2023-04-01T04:22:23;10.50;80.30
23233;DHT22;11785;49.500;8.288;2023-04-01T04:24:48;10.50;80.30
23233;DHT22;11785;49.500;8.288;2023-04-01T04:27:14;10.50;80.30
23233;DHT22;11785;49.500;8.288;2023-04-01T04:29:40;10.60;78.90
23233;DHT22;11785;49.500;8.288;2023-04-01T04:32:06;10.60;79.20
23233;DHT22;11785;49.500;8.288;2023-04-01T04:34:31;10.70;78.70
23233;DHT22;11785;49.500;8.288;2023-04-01T04:36:57;10.70;78.70
23233;DHT22;11785;49.500;8.288;2023-04-01T04:39:23;10.70;77.80
23233;DHT22;11785;49.500;8.288;2023-04-01T04:41:48;10.80;76.90
23233;DHT22;11785;49.500;8.288;2023-04-01T04:44:14;10.80;76.90
23233;DHT22;11785;49.500;8.288;2023-04-01T04:46:39;10.90;75.90
23233;DHT22;11785;49.500;8.288;2023-04-01T04:49:05;10.90;76.00
23233;DHT22;11785;49.500;8.288;2023-04-01T04:51:31;10.80;76.60
23233;DHT22;11785;49.500;8.288;2023-04-01T04:54:00;10.80;76.40
23233;DHT22;11785;49.500;8.288;2023-04-01T04:56:26;10.80;76.30
23233;DHT22;11785;49.500;8.288;2023-04-01T04:58:52;10.80;76.20
23233;DHT22;11785;49.500;8.288;2023-04-01T05:01:18;10.90;75.90
23233;DHT22;11785;49.500;8.288;2023-04-01T05:03:44;10.90;76.20
23233;DHT22;11785;49.500;8.288;2023-04-01T05:06:12;10.80;76.80
23233;DHT22;11785;49.500;8.288;2023-04-01T05:08:39;10.80;77.10
23233;DHT22;11785;49.500;8.288;2023-04-01T05:11:09;10.70;78.10
23233;DHT22;11785;49.500;8.288;2023-04-01T05:13:37;10.70;78.70
23233;DHT22;11785;49.500;8.288;2023-04-01T05:16:03;10.70;79.00
23233;DHT22;11785;49.500;8.288;2023-04-01T05:18:29;10.60;79.70
23233;DHT22;11785;49.500;8.288;2023-04-01T05:20:55;10.60;80.10
23233;DHT22;11785;49.500;8.288;2023-04-01T05:23:21;10.60;80.30
23233;DHT22;11785;49.500;8.288;2023-04-01T05:25:48;10.50;81.50
23233;DHT22;11785;49.500;8.288;2023-04-01T05:28:14;10.50;81.90
23233;DHT22;11785;49.500;8.288;2023-04-01T05:30:43;10.40;82.50
23233;DHT22;11785;49.500;8.288;2023-04-01T05:33:10;10.40;82.60
23233;DHT22;11785;49.500;8.288;2023-04-01T05:35:36;10.30;83.60
23233;DHT22;11785;49.500;8.288;2023-04-01T05:38:02;10.40;83.40
23233;DHT22;11785;49.500;8.288;2023-04-01T05:40:28;10.40;82.90
23233;DHT22;11785;49.500;8.288;2023-04-01T05:42:53;10.40;83.40
23233;DHT22;11785;49.500;8.288;2023-04-01T05:45:19;10.40;84.00
23233;DHT22;11785;49.500;8.288;2023-04-01T05:47:45;10.40;83.10
23233;DHT22;11785;49.500;8.288;2023-04-01T05:50:10;10.40;83.20
23233;DHT22;11785;49.500;8.288;2023-04-01T05:52:37;10.40;83.50
23233;DHT22;11785;49.500;8.288;2023-04-01T05:55:03;10.40;83.70
23233;DHT22;11785;49.500;8.288;2023-04-01T05:57:29;10.40;83.50
23233;DHT22;11785;49.500;8.288;2023-04-01T05:59:55;10.40;83.40
23233;DHT22;11785;49.500;8.288;2023-04-01T06:02:20;10.40;83.00
23233;DHT22;11785;49.500;8.288;2023-04-01T06:04:46;10.50;82.90
23233;DHT22;11785;49.500;8.288;2023-04-01T06:07:17;10.40;83.60
23233;DHT22;11785;49.500;8.288;2023-04-01T06:09:44;10.40;83.50
23233;DHT22;11785;49.500;8.288;2023-04-01T06:12:29;10.40;82.80
23233;DHT22;11785;49.500;8.288;2023-04-01T06:18:13;10.50;81.60
23233;DHT22;11785;49.500;8.288;2023-04-01T06:27:06;10.60;80.00
23233;DHT22;11785;49.500;8.288;2023-04-01T06:35:21;10.60;80.00
23233;DHT22;11785;49.500;8.288;2023-04-01T06:43:58;10.60;80.70
23233;DHT22;11785;49.500;8.288;2023-04-01T06:46:34;10.60;81.00
23233;DHT22;11785;49.500;8.288;2023-04-01T06:49:04;10.70;80.80
23233;DHT22;11785;49.500;8.288;2023-04-01T06:51:38;10.70;81.10
23233;DHT22;11785;49.500;8.288;2023-04-01T06:54:14;10.60;81.50
23233;DHT22;11785;49.500;8.288;2023-04-01T06:56:44;10.60;82.80
23233;DHT22;11785;49.500;8.288;2023-04-01T06:59:20;10.60;82.80
23233;DHT22;11785;49.500;8.288;2023-04-01T07:02:04;10.60;83.50
23233;DHT22;11785;49.500;8.288;2023-04-01T07:04:38;10.60;83.90
23233;DHT22;11785;49.500;8.288;2023-04-01T07:07:29;10.50;84.40
23233;DHT22;11785;49.500;8.288;2023-04-01T07:09:57;10.50;85.30
23233;DHT22;11785;49.500;8.288;2023-04-01T07:14:58;10.50;85.80
23233;DHT22;11785;49.500;8.288;2023-04-01T07:17:32;10.50;85.60
23233;DHT22;11785;49.500;8.288;2023-04-01T07:20:03;10.60;83.80
23233;DHT22;11785;49.500;8.288;2023-04-01T07:22:38;10.70;82.90
23233;DHT22;11785;49.500;8.288;2023-04-01T07:25:15;10.70;82.70
23233;DHT22;11785;49.500;8.288;2023-04-01T07:27:45;10.80;81.20
23233;DHT22;11785;49.500;8.288;2023-04-01T07:30:20;10.90;79.00
23233;DHT22;11785;49.500;8.288;2023-04-01T07:35:44;10.90;78.70
23233;DHT22;11785;49.500;8.288;2023-04-01T07:41:32;11.00;77.70
23233;DHT22;11785;49.500;8.288;2023-04-01T07:53:08;11.00;78.20
23233;DHT22;11785;49.500;8.288;2023-04-01T07:58:27;11.10;77.80
23233;DHT22;11785;49.500;8.288;2023-04-01T08:03:32;11.10;78.40
23233;DHT22;11785;49.500;8.288;2023-04-01T08:06:04;11.10;79.40
23233;DHT22;11785;49.500;8.288;2023-04-01T08:08:43;11.10;79.30
23233;DHT22;11785;49.500;8.288;2023-04-01T08:13:47;11.10;80.00
23233;DHT22;11785;49.500;8.288;2023-04-01T08:16:30;11.10;80.00
23233;DHT22;11785;49.500;8.288;2023-04-01T08:21:51;11.10;80.70
23233;DHT22;11785;49.500;8.288;2023-04-01T08:24:33;11.20;80.20
23233;DHT22;11785;49.500;8.288;2023-04-01T08:27:05;11.20;80.50
23233;DHT22;11785;49.500;8.288;2023-04-01T08:29:48;11.30;79.60
23233;DHT22;11785;49.500;8.288;2023-04-01T08:32:20;11.40;78.70
23233;DHT22;11785;49.500;8.288;2023-04-01T08:34:54;11.40;78.30
23233;DHT22;11785;49.500;8.288;2023-04-01T08:37:26;11.50;78.00
23233;DHT22;11785;49.500;8.288;2023-04-01T08:43:09;11.70;76.50
23233;DHT22;11785;49.500;8.288;2023-04-01T08:48:36;11.80;75.60
23233;DHT22;11785;49.500;8.288;2023-04-01T08:54:48;11.80;76.00
23233;DHT22;11785;49.500;8.288;2023-04-01T08:57:24;11.80;75.80
23233;DHT22;11785;49.500;8.288;2023-04-01T09:03:14;11.70;77.20
23233;DHT22;11785;49.500;8.288;2023-04-01T09:08:38;11.80;76.30
23233;DHT22;11785;49.500;8.288;2023-04-01T09:11:17;11.70;77.20
23233;DHT22;11785;49.500;8.288;2023-04-01T09:14:27;11.80;77.30
23233;DHT22;11785;49.500;8.288;2023-04-01T09:17:17;11.70;77.60
23233;DHT22;11785;49.500;8.288;2023-04-01T09:20:01;11.80;76.50
23233;DHT22;11785;49.500;8.288;2023-04-01T09:28:17;12.20;73.70
23233;DHT22;11785;49.500;8.288;2023-04-01T09:31:08;12.20;73.40
23233;DHT22;11785;49.500;8.288;2023-04-01T09:33:50;12.10;73.70
23233;DHT22;11785;49.500;8.288;2023-04-01T09:39:06;12.30;72.30
23233;DHT22;11785;49.500;8.288;2023-04-01T09:44:31;12.30;71.70
23233;DHT22;11785;49.500;8.288;2023-04-01T09:47:24;12.40;71.60
23233;DHT22;11785;49.500;8.288;2023-04-01T09:52:43;12.60;69.90
23233;DHT22;11785;49.500;8.288;2023-04-01T10:00:50;12.60;69.00
23233;DHT22;11785;49.500;8.288;2023-04-01T10:03:54;12.80;68.10
23233;DHT22;11785;49.500;8.288;2023-04-01T10:10:18;13.10;65.20
23233;DHT22;11785;49.500;8.288;2023-04-01T10:25:02;13.10;65.20
23233;DHT22;11785;49.500;8.288;2023-04-01T10:27:49;13.30;64.00
23233;DHT22;11785;49.500;8.288;2023-04-01T10:55:15;13.60;60.70
23233;DHT22;11785;49.500;8.288;2023-04-01T11:03:29;14.10;59.80
23233;DHT22;11785;49.500;8.288;2023-04-01T11:09:25;13.90;59.80
23233;DHT22;11785;49.500;8.288;2023-04-01T11:24:15;14.10;59.80
23233;DHT22;11785;49.500;8.288;2023-04-01T11:27:16;13.90;59.80
23233;DHT22;11785;49.500;8.288;2023-04-01T11:35:34;13.80;59.90
23233;DHT22;11785;49.500;8.288;2023-04-01T11:44:20;13.80;59.80
23233;DHT22;11785;49.500;8.288;2023-04-01T11:47:10;13.80;59.80
23233;DHT22;11785;49.500;8.288;2023-04-01T12:12:12;14.00;59.70
23233;DHT22;11785;49.500;8.288;2023-04-01T12:14:41;14.00;59.70
23233;DHT22;11785;49.500;8.288;2023-04-01T12:22:48;14.00;59.70
23233;DHT22;11785;49.500;8.288;2023-04-01T12:25:33;14.20;59.70
23233;DHT22;11785;49.500;8.288;2023-04-01T12:28:19;14.10;59.70
23233;DHT22;11785;49.500;8.288;2023-04-01T12:34:03;14.10;59.70
23233;DHT22;11785;49.500;8.288;2023-04-01T12:36:59;14.10;59.70
23233;DHT22;11785;49.500;8.288;2023-04-01T12:45:27;14.50;59.60
23233;DHT22;11785;49.500;8.288;2023-04-01T12:56:13;14.70;59.50
23233;DHT22;11785;49.500;8.288;2023-04-01T12:58:55;14.90;59.40
23233;DHT22;11785;49.500;8.288;2023-04-01T13:04:15;14.30;59.60
23233;DHT22;11785;49.500;8.288;2023-04-01T13:12:36;13.90;59.70
23233;DHT22;11785;49.500;8.288;2023-04-01T13:24:01;13.50;59.90
23233;DHT22;11785;49.500;8.288;2023-04-01T13:34:51;13.70;59.80
23233;DHT22;11785;49.500;8.288;2023-04-01T13:37:27;13.80;59.80
23233;DHT22;11785;49.500;8.288;2023-04-01T13:42:49;13.90;59.70
23233;DHT22;11785;49.500;8.288;2023-04-01T13:45:22;13.90;59.70
23233;DHT22;11785;49.500;8.288;2023-04-01T14:01:31;13.70;59.80
23233;DHT22;11785;49.500;8.288;2023-04-01T14:06:54;13.40;59.90
23233;DHT22;11785;49.500;8.288;2023-04-01T14:09:45;13.30;59.90
23233;DHT22;11785;49.500;8.288;2023-04-01T14:12:39;13.30;59.90
23233;DHT22;11785;49.500;8.288;2023-04-01T14:29:19;13.60;59.80
23233;DHT22;11785;49.500;8.288;2023-04-01T14:34:35;13.80;59.70
23233;DHT22;11785;49.500;8.288;2023-04-01T14:48:38;13.70;59.70
23233;DHT22;11785;49.500;8.288;2023-04-01T14:51:40;13.70;59.70
23233;DHT22;11785;49.500;8.288;2023-04-01T14:56:46;13.50;59.80
23233;DHT22;11785;49.500;8.288;2023-04-01T15:02:08;13.80;59.70
23233;DHT22;11785;49.500;8.288;2023-04-01T15:07:56;14.00;59.60
23233;DHT22;11785;49.500;8.288;2023-04-01T15:13:46;15.80;59.20
23233;DHT22;11785;49.500;8.288;2023-04-01T15:16:31;16.60;58.90
23233;DHT22;11785;49.500;8.288;2023-04-01T15:25:01;16.80;58.70
23233;DHT22;11785;49.500;8.288;2023-04-01T15:38:10;16.60;58.70
23233;DHT22;11785;49.500;8.288;2023-04-01T15:40:53;16.40;58.80
23233;DHT22;11785;49.500;8.288;2023-04-01T15:46:13;16.10;58.90
23233;DHT22;11785;49.500;8.288;2023-04-01T15:51:46;17.00;58.60
23233;DHT22;11785;49.500;8.288;2023-04-01T16:05:09;14.30;59.40
23233;DHT22;11785;49.500;8.288;2023-04-01T16:07:55;14.00;59.50
23233;DHT22;11785;49.500;8.288;2023-04-01T16:11:04;13.70;59.60
23233;DHT22;11785;49.500;8.288;2023-04-01T16:21:24;13.40;59.70
23233;DHT22;11785;49.500;8.288;2023-04-01T16:23:56;13.40;59.70
23233;DHT22;11785;49.500;8.288;2023-04-01T16:29:19;13.60;59.60
23233;DHT22;11785;49.500;8.288;2023-04-01T16:32:05;13.60;59.60
23233;DHT22;11785;49.500;8.288;2023-04-01T16:34:43;13.70;59.60
23233;DHT22;11785;49.500;8.288;2023-04-01T16:37:28;14.80;59.30
23233;DHT22;11785;49.500;8.288;2023-04-01T16:40:22;14.70;59.20
23233;DHT22;11785;49.500;8.288;2023-04-01T16:43:15;14.10;59.40
23233;DHT22;11785;49.500;8.288;2023-04-01T16:45:45;13.70;59.50
23233;DHT22;11785;49.500;8.288;2023-04-01T16:48:22;13.50;59.50
23233;DHT22;11785;49.500;8.288;2023-04-01T16:50:59;13.30;59.60
23233;DHT22;11785;49.500;8.288;2023-04-01T16:58:33;12.90;59.70
23233;DHT22;11785;49.500;8.288;2023-04-01T17:01:12;12.80;59.80
23233;DHT22;11785;49.500;8.288;2023-04-01T17:03:46;12.80;59.80
23233;DHT22;11785;49.500;8.288;2023-04-01T17:06:24;13.00;59.70
23233;DHT22;11785;49.500;8.288;2023-04-01T17:11:59;13.40;59.60
23233;DHT22;11785;49.500;8.288;2023-04-01T17:14:37;13.70;59.50
23233;DHT22;11785;49.500;8.288;2023-04-01T17:22:40;13.00;59.70
23233;DHT22;11785;49.500;8.288;2023-04-01T17:34:22;12.40;59.90
23233;DHT22;11785;49.500;8.288;2023-04-01T17:36:57;12.30;59.90
23233;DHT22;11785;49.500;8.288;2023-04-01T17:42:22;12.10;60.80
23233;DHT22;11785;49.500;8.288;2023-04-01T17:45:10;12.00;61.50
23233;DHT22;11785;49.500;8.288;2023-04-01T17:51:05;11.80;63.60
23233;DHT22;11785;49.500;8.288;2023-04-01T17:58:58;11.80;64.10
23233;DHT22;11785;49.500;8.288;2023-04-01T18:01:28;11.70;64.40
23233;DHT22;11785;49.500;8.288;2023-04-01T18:12:48;11.50;65.80
23233;DHT22;11785;49.500;8.288;2023-04-01T18:18:32;11.40;66.90
23233;DHT22;11785;49.500;8.288;2023-04-01T18:23:50;11.30;67.80
23233;DHT22;11785;49.500;8.288;2023-04-01T18:26:32;11.30;68.10
23233;DHT22;11785;49.500;8.288;2023-04-01T18:29:32;11.30;68.20
23233;DHT22;11785;49.500;8.288;2023-04-01T18:35:14;11.20;69.20
23233;DHT22;11785;49.500;8.288;2023-04-01T18:37:48;11.20;69.40
23233;DHT22;11785;49.500;8.288;2023-04-01T18:41:10;11.20;69.50
23233;DHT22;11785;49.500;8.288;2023-04-01T18:43:30;11.20;69.70
23233;DHT22;11785;49.500;8.288;2023-04-01T18:49:05;11.20;70.10
23233;DHT22;11785;49.500;8.288;2023-04-01T18:51:55;11.20;70.30
23233;DHT22;11785;49.500;8.288;2023-04-01T18:54:47;11.10;71.30
23233;DHT22;11785;49.500;8.288;2023-04-01T18:57:17;11.10;71.40
23233;DHT22;11785;49.500;8.288;2023-04-01T18:59:50;11.10;71.40
23233;DHT22;11785;49.500;8.288;2023-04-01T19:05:07;11.10;71.80
23233;DHT22;11785;49.500;8.288;2023-04-01T19:21:10;11.00;73.70
23233;DHT22;11785;49.500;8.288;2023-04-01T19:26:33;10.90;74.60
23233;DHT22;11785;49.500;8.288;2023-04-01T19:31:52;10.90;74.90
23233;DHT22;11785;49.500;8.288;2023-04-01T19:40:29;10.90;75.00
23233;DHT22;11785;49.500;8.288;2023-04-01T19:54:11;10.90;75.50
23233;DHT22;11785;49.500;8.288;2023-04-01T19:59:55;10.80;76.40
23233;DHT22;11785;49.500;8.288;2023-04-01T20:02:39;10.80;76.70
23233;DHT22;11785;49.500;8.288;2023-04-01T20:08:22;10.80;76.80
23233;DHT22;11785;49.500;8.288;2023-04-01T20:13:55;10.80;77.10
23233;DHT22;11785;49.500;8.288;2023-04-01T20:16:51;10.80;77.10
23233;DHT22;11785;49.500;8.288;2023-04-01T20:19:33;10.80;77.00
23233;DHT22;11785;49.500;8.288;2023-04-01T20:22:01;10.80;77.00
23233;DHT22;11785;49.500;8.288;2023-04-01T20:24:36;10.80;77.00
23233;DHT22;11785;49.500;8.288;2023-04-01T20:27:17;10.80;77.00
23233;DHT22;11785;49.500;8.288;2023-04-01T20:30:27;10.80;77.10
23233;DHT22;11785;49.500;8.288;2023-04-01T20:40:49;10.70;78.50
23233;DHT22;11785;49.500;8.288;2023-04-01T20:46:14;10.70;78.20
23233;DHT22;11785;49.500;8.288;2023-04-01T20:51:31;10.70;78.40
23233;DHT22;11785;49.500;8.288;2023-04-01T20:57:34;10.70;78.90
23233;DHT22;11785;49.500;8.288;2023-04-01T21:02:49;10.80;78.10
23233;DHT22;11785;49.500;8.288;2023-04-01T21:05:33;10.80;78.00
23233;DHT22;11785;49.500;8.288;2023-04-01T21:08:09;10.80;77.90
23233;DHT22;11785;49.500;8.288;2023-04-01T21:16:39;10.80;78.10
23233;DHT22;11785;49.500;8.288;2023-04-01T21:24:58;10.70;79.30
23233;DHT22;11785;49.500;8.288;2023-04-01T21:27:40;10.70;79.40
23233;DHT22;11785;49.500;8.288;2023-04-01T21:41:47;10.70;79.80
23233;DHT22;11785;49.500;8.288;2023-04-01T21:44:27;10.70;79.80
23233;DHT22;11785;49.500;8.288;2023-04-01T21:49:36;10.70;80.30
23233;DHT22;11785;49.500;8.288;2023-04-01T21:52:38;10.60;81.00
23233;DHT22;11785;49.500;8.288;2023-04-01T22:03:25;10.50;83.40
23233;DHT22;11785;49.500;8.288;2023-04-01T22:06:10;10.50;83.00
23233;DHT22;11785;49.500;8.288;2023-04-01T22:09:11;10.60;82.70
23233;DHT22;11785;49.500;8.288;2023-04-01T22:17:38;10.60;82.50
23233;DHT22;11785;49.500;8.288;2023-04-01T22:20:23;10.60;82.60
23233;DHT22;11785;49.500;8.288;2023-04-01T22:28:24;10.60;82.70
23233;DHT22;11785;49.500;8.288;2023-04-01T22:30:59;10.60;82.80
23233;DHT22;11785;49.500;8.288;2023-04-01T22:33:36;10.60;82.90
23233;DHT22;11785;49.500;8.288;2023-04-01T22:36:41;10.60;83.00
23233;DHT22;11785;49.500;8.288;2023-04-01T22:42:09;10.60;83.10
23233;DHT22;11785;49.500;8.288;2023-04-01T22:52:56;10.60;83.70
23233;DHT22;11785;49.500;8.288;2023-04-01T22:55:31;10.60;84.00
23233;DHT22;11785;49.500;8.288;2023-04-01T22:58:02;10.60;84.00
23233;DHT22;11785;49.500;8.288;2023-04-01T23:00:33;10.60;83.50
23233;DHT22;11785;49.500;8.288;2023-04-01T23:03:21;10.60;83.40
23233;DHT22;11785;49.500;8.288;2023-04-01T23:05:52;10.60;83.60
23233;DHT22;11785;49.500;8.288;2023-04-01T23:08:46;10.60;83.70
23233;DHT22;11785;49.500;8.288;2023-04-01T23:11:22;10.60;83.40
23233;DHT22;11785;49.500;8.288;2023-04-01T23:13:57;10.60;83.20
23233;DHT22;11785;49.500;8.288;2023-04-01T23:16:33;10.70;82.40
23233;DHT22;11785;49.500;8.288;2023-04-01T23:19:37;10.60;82.90
23233;DHT22;11785;49.500;8.288;2023-04-01T23:24:59;10.60;83.30
23233;DHT22;11785;49.500;8.288;2023-04-01T23:35:51;10.50;84.40
23233;DHT22;11785;49.500;8.288;2023-04-01T23:38:18;10.50;84.60
23233;DHT22;11785;49.500;8.288;2023-04-01T23:40:47;10.50;84.90
23233;DHT22;11785;49.500;8.288;2023-04-01T23:43:36;10.50;84.80
23233;DHT22;11785;49.500;8.288;2023-04-01T23:46:03;10.50;84.70
23233;DHT22;11785;49.500;8.288;2023-04-01T23:48:41;10.60;83.30
23233;DHT22;11785;49.500;8.288;2023-04-01T23:51:14;10.60;83.10
23233;DHT22;11785;49.500;8.288;2023-04-01T23:53:43;10.60;83.50
23233;DHT22;11785;49.500;8.288;2023-04-01T23:56:09;10.60;83.70
23233;DHT22;11785;49.500;8.288;2023-04-01T23:58:48;10.60;84.40
